Time;durP1;ratioP1;P1;durP2;ratioP2;P2;SDS_P1;SDS_P2;PMS_P1;PMS_P2;Temp;Humidity;BMP_temperature;BMP_pressure;BME280_temperature;BME280_humidity;BME280_pressure;Samples;Min_cycle;Max_cycle;Signal;HPM_P1;HPM_P2
2022/03/30 00:00:46;;;;;;;17.57;13.40;;;;;;;11.31;63.23;97447.84;4979204;28;103526;-63
2022/03/30 00:03:15;;;;;;;15.57;12.20;;;;;;;11.32;63.01;97444.19;4979918;28;103278;-61
2022/03/30 00:05:44;;;;;;;12.30;10.27;;;;;;;11.46;61.74;97446.34;4980228;28;104264;-61
2022/03/30 00:08:17;;;;;;;12.23;10.03;;;;;;;11.54;61.39;97449.94;4980142;28;102756;-61
2022/03/30 00:10:45;;;;;;;14.13;10.53;;;;;;;11.58;61.09;97453.97;4980557;28;102759;-61
2022/03/30 00:13:15;;;;;;;11.60;9.87;;;;;;;11.61;61.01;97451.03;4974857;28;103523;-61
2022/03/30 00:15:43;;;;;;;13.63;10.60;;;;;;;11.65;61.26;97443.63;4979095;28;103345;-61
2022/03/30 00:18:11;;;;;;;25.17;17.03;;;;;;;11.59;62.12;97444.22;4979085;28;103002;-61
2022/03/30 00:20:40;;;;;;;20.93;14.33;;;;;;;11.64;61.69;97450.75;4979701;28;103932;-61
2022/03/30 00:23:08;;;;;;;14.77;12.20;;;;;;;11.66;61.69;97447.94;4979924;28;103291;-61
2022/03/30 00:25:36;;;;;;;12.97;11.30;;;;;;;11.65;62.00;97441.81;4980260;28;104164;-61
2022/03/30 00:28:05;;;;;;;20.67;15.37;;;;;;;11.47;63.33;97446.22;4977697;28;102618;-61
2022/03/30 00:30:34;;;;;;;17.10;14.33;;;;;;;11.50;63.00;97443.31;4976575;28;104478;-61
2022/03/30 00:33:02;;;;;;;15.10;12.90;;;;;;;11.62;62.61;97443.94;4978561;28;103795;-63
2022/03/30 00:35:31;;;;;;;13.33;11.83;;;;;;;11.65;62.18;97440.97;4977404;28;104258;-64
2022/03/30 00:37:59;;;;;;;12.03;10.50;;;;;;;11.70;62.11;97437.94;4977979;28;103631;-63
2022/03/30 00:40:28;;;;;;;13.97;12.47;;;;;;;11.70;62.62;97433.47;4977174;28;104378;-61
2022/03/30 00:42:56;;;;;;;16.77;14.70;;;;;;;11.50;63.63;97431.88;4979592;28;103925;-60
2022/03/30 00:45:24;;;;;;;11.80;10.53;;;;;;;11.64;62.40;97436.69;4973611;28;103377;-60
2022/03/30 00:47:54;;;;;;;18.20;12.63;;;;;;;11.72;63.22;97436.81;4975081;28;103084;-61
2022/03/30 00:50:24;;;;;;;22.37;15.77;;;;;;;11.49;64.57;97440.78;4976054;28;104029;-60
2022/03/30 00:52:55;;;;;;;18.50;16.50;;;;;;;11.42;65.11;97439.72;4975284;28;104212;-60
2022/03/30 00:55:23;;;;;;;17.20;13.60;;;;;;;11.48;64.85;97439.94;4979631;28;103277;-63
2022/03/30 00:57:53;;;;;;;19.90;15.83;;;;;;;11.52;64.97;97451.06;4977779;28;102718;-62
2022/03/30 01:00:21;;;;;;;15.17;13.67;;;;;;;11.62;64.29;97451.88;4979302;28;102703;-62
2022/03/30 01:02:50;;;;;;;21.80;18.13;;;;;;;11.50;65.33;97447.75;4974298;28;104005;-60
2022/03/30 01:05:20;;;;;;;18.73;16.73;;;;;;;11.47;65.84;97448.88;4976609;28;103279;-62
2022/03/30 01:07:48;;;;;;;21.70;15.80;;;;;;;11.60;65.77;97445.88;4977038;28;102607;-62
2022/03/30 01:10:18;;;;;;;21.47;16.33;;;;;;;11.41;67.70;97453.91;4975780;28;103494;-63
2022/03/30 01:12:52;;;;;;;17.20;13.93;;;;;;;11.53;67.34;97442.16;4978557;28;103345;-62
2022/03/30 01:15:20;;;;;;;20.67;17.03;;;;;;;11.44;68.56;97429.81;4979200;28;103209;-62
2022/03/30 01:17:48;;;;;;;14.87;12.97;;;;;;;11.56;67.72;97428.66;4975533;28;102616;-62
2022/03/30 01:20:18;;;;;;;15.37;13.33;;;;;;;11.61;67.88;97421.09;4978061;28;103914;-62
2022/03/30 01:22:48;;;;;;;13.03;11.67;;;;;;;11.68;67.03;97424.00;4976524;28;103295;-62
2022/03/30 01:25:16;;;;;;;17.47;14.80;;;;;;;11.68;67.36;97416.88;4979337;28;103263;-62
2022/03/30 01:27:44;;;;;;;27.73;19.40;;;;;;;11.46;68.87;97410.19;4978240;28;102844;-62
2022/03/30 01:33:03;;;;;;;14.83;13.33;;;;;;;11.60;67.08;97400.91;4978372;28;104211;-63
2022/03/30 01:35:33;;;;;;;12.37;11.13;;;;;;;11.65;66.98;97401.28;4973443;28;103835;-62
2022/03/30 01:38:03;;;;;;;14.60;12.57;;;;;;;11.71;67.11;97406.03;4978369;28;102636;-63
2022/03/30 01:40:35;;;;;;;17.13;15.43;;;;;;;11.72;68.02;97391.81;4974757;28;103833;-60
2022/03/30 01:43:03;;;;;;;18.73;16.67;;;;;;;11.61;68.27;97398.13;4976989;28;105980;-61
2022/03/30 01:45:32;;;;;;;15.57;13.33;;;;;;;11.61;68.46;97397.28;4979251;28;103209;-62
2022/03/30 01:48:01;;;;;;;20.50;15.97;;;;;;;11.49;68.26;97401.13;4976446;28;102956;-62
2022/03/30 01:50:32;;;;;;;16.13;13.47;;;;;;;11.60;67.25;97395.63;4977379;28;102794;-60
2022/03/30 01:53:00;;;;;;;16.60;14.47;;;;;;;11.69;66.86;97393.91;4977647;28;104065;-60
2022/03/30 01:55:30;;;;;;;17.47;14.27;;;;;;;11.72;66.79;97398.94;4976811;28;103352;-61
2022/03/30 01:57:58;;;;;;;13.93;12.40;;;;;;;11.67;66.49;97391.41;4977029;28;102667;-61
2022/03/30 02:00:26;;;;;;;13.77;11.43;;;;;;;11.73;67.19;97393.50;4974132;28;103734;-61
2022/03/30 02:02:55;;;;;;;26.23;18.93;;;;;;;11.33;70.33;97387.72;4971330;28;104142;-61
2022/03/30 02:05:23;;;;;;;20.73;16.50;;;;;;;11.12;71.61;97380.00;4976292;28;103384;-61
2022/03/30 02:07:51;;;;;;;17.77;14.03;;;;;;;11.37;70.54;97375.84;4978368;28;102602;-61
2022/03/30 02:10:19;;;;;;;22.37;19.97;;;;;;;10.70;74.86;97369.03;4976422;28;103620;-63
2022/03/30 02:12:48;;;;;;;20.60;15.50;;;;;;;11.12;72.95;97360.66;4976088;28;103268;-63
2022/03/30 02:15:17;;;;;;;27.17;19.87;;;;;;;10.71;73.90;97349.56;4977726;28;102964;-63
2022/03/30 02:17:45;;;;;;;26.63;21.10;;;;;;;10.51;76.22;97347.97;4978050;28;102662;-63
2022/03/30 02:20:13;;;;;;;25.53;19.97;;;;;;;10.67;75.77;97339.44;4976007;28;103695;-63
2022/03/30 02:22:41;;;;;;;21.40;16.80;;;;;;;10.85;75.15;97335.06;4977927;28;103983;-63
2022/03/30 02:25:11;;;;;;;16.60;14.40;;;;;;;11.06;73.24;97335.66;4976387;28;102930;-63
2022/03/30 02:27:39;;;;;;;22.03;19.20;;;;;;;11.10;73.52;97330.91;4975825;28;102968;-62
2022/03/30 02:30:10;;;;;;;24.00;20.57;;;;;;;10.80;74.11;97327.59;4974533;28;102974;-61
2022/03/30 02:32:40;;;;;;;21.50;16.97;;;;;;;10.93;73.10;97322.78;4975818;28;104139;-61
2022/03/30 02:35:09;;;;;;;20.03;17.07;;;;;;;11.11;72.27;97324.66;4976963;28;103304;-61
2022/03/30 02:37:41;;;;;;;19.83;16.63;;;;;;;11.19;72.55;97316.81;4976373;28;102879;-61
2022/03/30 02:40:10;;;;;;;16.33;14.50;;;;;;;10.99;73.66;97308.16;4976343;28;103370;-61
2022/03/30 02:42:37;;;;;;;14.77;13.30;;;;;;;11.18;71.62;97315.97;4975285;28;104368;-61
2022/03/30 02:45:07;;;;;;;16.50;13.50;;;;;;;11.31;71.29;97310.34;4976635;28;104364;-61
2022/03/30 02:50:24;;;;;;;18.97;16.10;;;;;;;11.26;72.90;97307.31;4973780;28;102791;-61
2022/03/30 02:52:52;;;;;;;23.67;18.97;;;;;;;11.01;73.65;97312.31;4974773;28;103704;-63
2022/03/30 02:55:20;;;;;;;21.23;18.03;;;;;;;10.87;72.92;97306.69;4973614;28;103209;-61
2022/03/30 02:57:48;;;;;;;21.53;19.07;;;;;;;11.10;72.44;97301.84;4976849;28;102583;-61
2022/03/30 03:00:17;;;;;;;25.33;19.70;;;;;;;10.76;73.82;97294.50;4976429;28;102610;-61
2022/03/30 03:02:46;;;;;;;16.47;14.23;;;;;;;10.97;72.37;97303.03;4975332;28;104345;-61
2022/03/30 03:05:14;;;;;;;16.37;13.33;;;;;;;11.15;71.57;97304.88;4975711;28;103219;-63
2022/03/30 03:07:42;;;;;;;19.13;14.67;;;;;;;11.28;70.52;97302.72;4979672;28;102693;-61
2022/03/30 03:10:10;;;;;;;20.23;18.10;;;;;;;11.28;71.53;97300.09;4975876;28;104067;-61
2022/03/30 03:12:38;;;;;;;23.40;18.30;;;;;;;11.13;72.28;97296.25;4978610;28;103827;-61
2022/03/30 03:15:07;;;;;;;25.50;20.37;;;;;;;10.89;73.98;97292.34;4976754;28;103191;-61
2022/03/30 03:17:35;;;;;;;17.77;14.90;;;;;;;10.89;73.27;97288.91;4974835;28;102697;-61
2022/03/30 03:20:07;;;;;;;19.30;15.73;;;;;;;11.09;71.59;97290.44;4977189;28;102796;-61
2022/03/30 03:22:36;;;;;;;28.20;19.37;;;;;;;11.13;72.51;97294.47;4975838;28;103113;-63
2022/03/30 03:25:09;;;;;;;17.93;14.53;;;;;;;11.15;71.92;97296.94;4975889;28;103292;-64
2022/03/30 03:27:39;;;;;;;15.60;13.57;;;;;;;11.25;71.00;97295.94;4975454;28;103078;-62
2022/03/30 03:30:08;;;;;;;18.40;13.20;;;;;;;11.32;72.66;97288.22;4976806;28;104032;-63
2022/03/30 03:32:36;;;;;;;12.90;11.60;;;;;;;11.36;71.41;97289.59;4974204;28;104076;-63
2022/03/30 03:35:09;;;;;;;23.97;19.40;;;;;;;11.25;73.23;97287.16;4977490;28;103265;-60
2022/03/30 03:37:38;;;;;;;15.77;14.07;;;;;;;11.24;72.41;97288.13;4975287;28;103160;-61
2022/03/30 03:40:08;;;;;;;14.83;13.30;;;;;;;11.34;71.72;97280.97;4977839;28;102794;-60
2022/03/30 03:42:40;;;;;;;23.30;19.17;;;;;;;11.32;72.89;97277.63;4974436;28;104281;-61
2022/03/30 03:45:08;;;;;;;24.93;20.83;;;;;;;10.96;73.91;97277.59;4975234;28;104024;-61
2022/03/30 03:47:37;;;;;;;27.10;22.57;;;;;;;10.39;76.41;97275.16;4968573;28;103209;-63
2022/03/30 03:50:06;;;;;;;24.30;18.93;;;;;;;10.66;75.43;97271.75;4974326;28;102774;-63
2022/03/30 03:52:35;;;;;;;19.47;16.67;;;;;;;10.91;74.41;97271.91;4976146;28;103961;-63
2022/03/30 03:55:04;;;;;;;26.57;20.93;;;;;;;10.62;75.59;97271.19;4972222;28;103108;-63
2022/03/30 03:57:34;;;;;;;18.00;16.13;;;;;;;10.90;73.74;97275.53;4972706;28;102658;-63
2022/03/30 04:00:04;;;;;;;18.83;16.87;;;;;;;11.05;73.68;97282.00;4976253;28;103715;-63
2022/03/30 04:02:39;;;;;;;21.10;16.40;;;;;;;11.11;73.08;97280.56;4976334;28;103332;-63
2022/03/30 04:05:12;;;;;;;17.40;15.60;;;;;;;11.10;73.16;97270.97;4975787;28;103223;-63
2022/03/30 04:07:41;;;;;;;16.17;13.33;;;;;;;11.21;72.05;97272.56;4973156;28;102652;-63
2022/03/30 04:10:11;;;;;;;14.87;13.37;;;;;;;11.30;72.54;97274.31;4974399;28;103655;-63
2022/03/30 04:12:40;;;;;;;28.70;20.07;;;;;;;11.04;74.64;97282.97;4992132;28;104293;-64
2022/03/30 04:15:09;;;;;;;28.57;21.10;;;;;;;10.56;77.53;97277.06;4973106;28;103163;-61
2022/03/30 04:17:44;;;;;;;21.03;18.33;;;;;;;10.77;76.39;97275.03;4974501;28;102832;-63
2022/03/30 04:20:13;;;;;;;28.43;21.33;;;;;;;10.94;75.82;97276.06;4943834;28;104067;-64
2022/03/30 04:22:44;;;;;;;21.97;18.33;;;;;;;10.86;75.37;97263.56;4968667;28;103255;-65
2022/03/30 04:25:12;;;;;;;24.13;21.00;;;;;;;10.80;75.72;97266.00;4964032;28;103208;-63
2022/03/30 04:27:47;;;;;;;24.37;20.27;;;;;;;10.66;76.51;97262.03;4970858;28;103846;-63
2022/03/30 04:30:16;;;;;;;19.00;16.13;;;;;;;10.94;75.51;97261.06;4968408;28;102992;-63
2022/03/30 04:32:45;;;;;;;14.87;13.37;;;;;;;11.02;75.35;97263.78;4960305;28;103271;-63
2022/03/30 04:35:14;;;;;;;25.43;18.33;;;;;;;11.04;77.12;97264.47;4947632;28;103895;-64
2022/03/30 04:37:44;;;;;;;24.47;19.47;;;;;;;10.87;77.53;97265.25;4972762;28;102983;-61
2022/03/30 04:40:12;;;;;;;17.70;15.80;;;;;;;10.99;76.63;97269.38;4969772;28;103114;-61
2022/03/30 04:42:43;;;;;;;23.53;18.63;;;;;;;10.80;77.54;97269.47;4972405;28;103307;-60
2022/03/30 04:45:11;;;;;;;22.07;16.90;;;;;;;10.74;78.55;97271.84;4984113;28;103297;-61
2022/03/30 04:47:39;;;;;;;17.23;15.43;;;;;;;10.83;78.83;97270.97;4969046;28;103031;-61
2022/03/30 04:50:08;;;;;;;25.80;18.57;;;;;;;10.92;79.39;97273.56;4969525;28;103817;-61
2022/03/30 04:52:37;;;;;;;15.83;13.93;;;;;;;10.97;79.27;97276.63;4968796;28;104330;-62
2022/03/30 04:55:08;;;;;;;23.40;19.43;;;;;;;11.01;82.89;97271.84;4959142;28;103194;-63
2022/03/30 04:57:37;;;;;;;22.37;17.90;;;;;;;10.77;84.22;97280.31;4970759;28;103633;-64
2022/03/30 05:00:08;;;;;;;19.90;17.33;;;;;;;10.83;84.46;97274.47;4973303;28;103975;-65
2022/03/30 05:02:36;;;;;;;17.57;15.10;;;;;;;10.46;87.02;97276.28;4969070;28;103475;-65
2022/03/30 05:05:05;;;;;;;14.37;12.87;;;;;;;10.75;84.82;97276.97;4974494;28;103329;-65
2022/03/30 05:07:33;;;;;;;14.80;13.20;;;;;;;10.80;86.30;97279.19;4975526;28;102643;-64
2022/03/30 05:10:02;;;;;;;17.73;15.73;;;;;;;10.74;87.91;97277.97;4978338;28;102646;-64
2022/03/30 05:12:31;;;;;;;19.83;16.37;;;;;;;10.70;87.23;97281.88;4978192;28;103717;-64
2022/03/30 05:15:06;;;;;;;15.67;14.07;;;;;;;10.78;87.07;97274.03;4978229;28;103059;-64
2022/03/30 05:17:34;;;;;;;19.67;15.83;;;;;;;10.70;87.60;97273.94;4978624;28;102623;-64
2022/03/30 05:20:04;;;;;;;18.17;14.93;;;;;;;10.71;87.81;97270.34;4978382;28;104166;-64
2022/03/30 05:22:33;;;;;;;21.50;16.70;;;;;;;10.61;88.32;97269.53;4979341;28;103485;-64
2022/03/30 05:25:01;;;;;;;26.07;19.03;;;;;;;10.54;90.34;97263.19;4977179;28;103229;-64
2022/03/30 05:27:31;;;;;;;22.30;14.43;;;;;;;10.35;91.49;97271.16;4979328;28;102689;-63
2022/03/30 05:29:59;;;;;;;25.43;14.70;;;;;;;10.38;93.66;97269.09;4979053;28;104212;-63
2022/03/30 05:32:27;;;;;;;25.03;13.20;;;;;;;10.39;92.45;97270.72;4977924;28;103238;-63
2022/03/30 05:34:56;;;;;;;17.13;11.33;;;;;;;10.45;91.65;97270.16;4962452;28;103235;-64
2022/03/30 05:37:25;;;;;;;14.30;9.77;;;;;;;10.45;92.96;97269.31;4957552;28;102652;-64
2022/03/30 05:39:53;;;;;;;22.07;12.40;;;;;;;10.39;93.05;97269.88;4966602;28;102888;-64
2022/03/30 05:42:22;;;;;;;19.37;11.47;;;;;;;10.49;92.77;97268.06;4970758;28;103294;-64
2022/03/30 05:44:52;;;;;;;19.47;12.13;;;;;;;10.31;94.62;97270.63;4972606;28;104996;-64
2022/03/30 05:47:20;;;;;;;17.47;10.90;;;;;;;10.39;93.93;97270.72;4971481;28;102740;-63
2022/03/30 05:49:48;;;;;;;14.27;10.13;;;;;;;10.54;92.98;97263.19;4977334;28;104075;-63
2022/03/30 05:52:16;;;;;;;11.03;8.47;;;;;;;10.61;92.26;97279.28;4973495;28;104043;-63
2022/03/30 05:54:44;;;;;;;21.93;12.20;;;;;;;10.56;91.66;97266.50;4978801;28;103229;-63
2022/03/30 05:57:13;;;;;;;12.10;9.40;;;;;;;10.62;91.33;97273.84;4975750;28;102606;-63
2022/03/30 05:59:43;;;;;;;22.37;12.47;;;;;;;10.49;93.44;97270.72;4975970;28;102886;-65
2022/03/30 06:02:14;;;;;;;17.20;11.20;;;;;;;10.50;94.32;97275.00;4973383;28;104196;-64
2022/03/30 06:04:45;;;;;;;20.00;12.17;;;;;;;10.44;94.58;97272.97;4977560;28;103072;-65
2022/03/30 06:07:13;;;;;;;25.37;14.03;;;;;;;10.12;98.20;97268.00;4979710;28;102623;-62
2022/03/30 06:09:41;;;;;;;22.47;13.53;;;;;;;10.10;99.12;97269.13;4978160;28;102795;-62
2022/03/30 06:12:15;;;;;;;18.73;13.47;;;;;;;9.95;100.00;97265.25;4976484;28;103893;-62
2022/03/30 06:14:45;;;;;;;23.63;13.60;;;;;;;9.92;100.00;97263.72;4978905;28;103225;-62
2022/03/30 06:17:17;;;;;;;20.10;9.17;;;;;;;10.15;98.61;97261.63;4972067;28;102732;-62
2022/03/30 06:19:48;;;;;;;18.33;12.20;;;;;;;10.22;98.12;97258.28;4977881;28;104085;-62
2022/03/30 06:22:17;;;;;;;21.00;12.47;;;;;;;10.15;99.96;97262.47;4972041;28;103225;-62
2022/03/30 06:24:45;;;;;;;23.73;13.97;;;;;;;10.05;100.00;97260.81;4975428;28;103190;-61
2022/03/30 06:27:13;;;;;;;21.67;13.77;;;;;;;10.01;100.00;97259.41;4973754;28;102730;-62
2022/03/30 06:29:42;;;;;;;15.00;11.23;;;;;;;10.05;100.00;97258.16;4972474;28;102649;-62
2022/03/30 06:32:10;;;;;;;16.00;10.87;;;;;;;10.30;100.00;97260.22;4977374;28;103649;-63
2022/03/30 06:34:40;;;;;;;19.10;13.10;;;;;;;10.46;98.51;97257.78;4978285;28;103217;-62
2022/03/30 06:37:08;;;;;;;16.17;10.10;;;;;;;10.56;96.79;97249.81;4978331;28;102592;-62
2022/03/30 06:39:37;;;;;;;18.47;12.60;;;;;;;10.60;96.44;97257.31;4976218;28;104073;-66
2022/03/30 06:42:09;;;;;;;20.10;14.20;;;;;;;10.63;97.36;97250.91;4977647;28;104051;-65
2022/03/30 06:44:38;;;;;;;27.20;16.97;;;;;;;10.53;95.98;97253.59;4976904;28;103205;-65
2022/03/30 06:47:07;;;;;;;15.97;12.33;;;;;;;10.49;97.76;97249.59;4977890;28;103646;-62
2022/03/30 06:49:35;;;;;;;26.03;18.40;;;;;;;10.45;98.21;97243.75;4976929;28;102737;-63
2022/03/30 06:52:05;;;;;;;21.20;16.13;;;;;;;10.30;100.00;97237.28;4973191;28;103272;-62
2022/03/30 06:54:37;;;;;;;19.63;15.47;;;;;;;10.46;100.00;97247.22;4975878;28;103331;-63
2022/03/30 06:57:06;;;;;;;30.80;20.07;;;;;;;10.13;100.00;97242.47;4975854;28;102756;-63
2022/03/30 06:59:34;;;;;;;29.07;19.37;;;;;;;9.89;100.00;97241.09;4974550;28;102649;-63
2022/03/30 07:02:03;;;;;;;26.97;19.27;;;;;;;9.62;100.00;97232.25;4976888;28;103910;-63
2022/03/30 07:04:31;;;;;;;31.97;20.50;;;;;;;9.41;100.00;97229.75;4975188;28;103336;-63
2022/03/30 07:12:33;;;;;;;31.87;23.77;;;;;;;9.44;100.00;97223.38;4977362;28;103316;-65
2022/03/30 07:15:02;;;;;;;32.83;24.47;;;;;;;9.42;100.00;97228.78;4977351;28;103214;-65
2022/03/30 07:17:30;;;;;;;36.87;25.13;;;;;;;9.42;100.00;97212.97;4976639;28;103030;-65
2022/03/30 07:19:59;;;;;;;36.73;24.43;;;;;;;9.37;100.00;97228.38;4975635;28;102771;-65
2022/03/30 07:22:27;;;;;;;33.57;23.30;;;;;;;9.61;100.00;97223.50;4973925;28;103351;-65
2022/03/30 07:24:56;;;;;;;30.57;24.27;;;;;;;9.49;100.00;97224.63;4975987;28;103196;-63
2022/03/30 07:27:24;;;;;;;35.63;23.37;;;;;;;9.55;100.00;97231.97;4975134;28;102709;-63
2022/03/30 07:29:52;;;;;;;32.10;23.77;;;;;;;9.59;100.00;97222.81;4973458;28;102782;-64
2022/03/30 07:32:21;;;;;;;27.63;22.47;;;;;;;9.81;100.00;97221.69;4977746;28;103759;-65
2022/03/30 07:34:49;;;;;;;34.33;22.90;;;;;;;9.78;100.00;97216.69;4978004;28;104029;-64
2022/03/30 07:37:17;;;;;;;33.57;23.93;;;;;;;9.79;100.00;97219.19;4976008;28;102707;-65
2022/03/30 07:39:45;;;;;;;32.87;23.93;;;;;;;9.71;100.00;97221.69;4976948;28;103853;-63
2022/03/30 07:42:15;;;;;;;30.17;22.83;;;;;;;9.77;100.00;97223.75;4976361;28;104057;-64
2022/03/30 07:44:43;;;;;;;29.77;23.03;;;;;;;9.70;100.00;97220.03;4976296;28;103283;-64
2022/03/30 07:47:14;;;;;;;33.57;23.90;;;;;;;9.74;100.00;97215.31;4977714;28;102620;-63
2022/03/30 07:49:42;;;;;;;30.47;23.13;;;;;;;9.85;100.00;97221.25;4970133;28;103828;-63
2022/03/30 07:52:10;;;;;;;30.13;20.73;;;;;;;10.22;100.00;97210.75;4977502;28;103576;-64
2022/03/30 07:54:38;;;;;;;38.10;25.50;;;;;;;10.30;100.00;97204.78;4975432;28;103222;-63
2022/03/30 07:57:06;;;;;;;40.07;28.00;;;;;;;10.21;100.00;97209.13;4976590;28;102620;-63
2022/03/30 07:59:36;;;;;;;33.37;23.97;;;;;;;10.39;100.00;97211.81;4973220;28;102760;-64
2022/03/30 08:02:04;;;;;;;35.00;24.33;;;;;;;10.49;100.00;97212.63;4975783;28;103395;-63
2022/03/30 08:04:32;;;;;;;43.80;32.13;;;;;;;10.43;100.00;97210.56;4974519;28;104172;-64
2022/03/30 08:07:00;;;;;;;49.23;34.67;;;;;;;10.42;100.00;97203.59;4975988;28;102781;-63
2022/03/30 08:09:28;;;;;;;35.93;26.23;;;;;;;10.85;100.00;97213.53;4976632;28;103641;-66
2022/03/30 08:11:56;;;;;;;31.43;25.03;;;;;;;11.13;100.00;97203.75;4981764;28;104070;-67
2022/03/30 08:14:26;;;;;;;62.90;40.50;;;;;;;10.80;100.00;97203.44;4977853;28;103117;-67
2022/03/30 08:16:58;;;;;;;64.73;41.63;;;;;;;10.56;100.00;97207.56;4977157;28;102691;-67
2022/03/30 08:19:26;;;;;;;38.67;29.50;;;;;;;11.10;100.00;97206.69;4977785;28;104597;-68
2022/03/30 08:24:40;;;;;;;46.90;30.97;;;;;;;11.46;100.00;97203.91;4980898;28;103162;-66
2022/03/30 08:27:08;;;;;;;33.50;22.60;;;;;;;11.59;97.04;97209.63;4977094;28;102710;-67
2022/03/30 08:29:38;;;;;;;32.40;22.03;;;;;;;11.64;95.35;97206.56;4980441;28;102751;-66
2022/03/30 08:32:08;;;;;;;36.00;21.93;;;;;;;11.56;95.51;97212.59;4978134;28;104768;-66
2022/03/30 08:34:38;;;;;;;28.47;18.63;;;;;;;11.49;95.23;97211.53;4972907;28;103892;-65
2022/03/30 08:37:07;;;;;;;25.90;18.07;;;;;;;11.74;93.82;97215.25;4974215;28;102666;-64
2022/03/30 08:39:35;;;;;;;22.70;16.17;;;;;;;11.88;94.24;97220.00;4974720;28;103893;-64
2022/03/30 08:42:05;;;;;;;20.53;16.83;;;;;;;12.01;93.03;97220.41;4980367;28;103299;-66
2022/03/30 08:44:34;;;;;;;23.97;17.57;;;;;;;12.06;92.67;97223.44;4978209;28;103234;-66
2022/03/30 08:47:02;;;;;;;30.03;19.90;;;;;;;12.03;91.69;97221.09;4980351;28;102735;-66
2022/03/30 08:49:34;;;;;;;23.77;15.83;;;;;;;12.06;92.33;97218.16;4977883;28;103906;-66
2022/03/30 08:52:08;;;;;;;21.63;17.33;;;;;;;12.06;91.84;97209.38;4980443;28;104342;-67
2022/03/30 08:54:36;;;;;;;19.10;16.37;;;;;;;12.03;91.86;97213.16;4976747;28;103265;-66
2022/03/30 08:57:07;;;;;;;20.87;16.10;;;;;;;12.10;92.80;97211.53;4977520;28;103831;-66
2022/03/30 08:59:36;;;;;;;20.53;14.23;;;;;;;11.59;95.01;97216.75;4978649;28;104066;-67
2022/03/30 09:02:04;;;;;;;29.90;17.73;;;;;;;11.90;93.46;97217.19;4979906;28;104239;-66
2022/03/30 09:04:34;;;;;;;23.77;16.77;;;;;;;11.90;92.49;97202.13;4976733;28;103290;-66
2022/03/30 09:07:03;;;;;;;23.50;17.33;;;;;;;11.87;91.42;97202.47;4978650;28;102558;-65
2022/03/30 09:09:32;;;;;;;22.17;14.57;;;;;;;11.98;91.01;97207.50;4977023;28;103656;-65
2022/03/30 09:12:01;;;;;;;32.03;20.03;;;;;;;11.77;92.45;97207.00;4977098;28;103896;-65
2022/03/30 09:14:31;;;;;;;21.83;16.00;;;;;;;11.65;94.07;97203.75;4976715;28;104352;-65
2022/03/30 09:17:01;;;;;;;22.27;16.80;;;;;;;11.90;92.80;97202.13;4975683;28;103008;-66
2022/03/30 09:19:36;;;;;;;19.40;13.47;;;;;;;12.01;91.03;97199.22;4977845;28;104121;-62
2022/03/30 09:22:07;;;;;;;23.80;16.97;;;;;;;12.15;91.37;97198.66;4973550;28;104258;-62
2022/03/30 09:24:38;;;;;;;16.47;14.13;;;;;;;12.23;91.12;97200.53;4978837;28;103239;-63
2022/03/30 09:27:08;;;;;;;16.97;11.87;;;;;;;12.20;90.11;97201.69;4980018;28;103225;-63
2022/03/30 09:29:38;;;;;;;27.40;16.30;;;;;;;12.06;90.02;97191.69;4980151;28;104033;-62
2022/03/30 09:32:23;;;;;;;;;;;;;;;12.12;91.90;97196.34;4981224;28;103208;-62
2022/03/30 09:34:52;;;;;;;;;;;;;;;12.15;91.43;97188.06;4978024;28;103356;-62
2022/03/30 09:37:21;;;;;;;;;;;;;;;12.22;89.64;97190.94;4977876;28;102799;-62
2022/03/30 09:39:51;;;;;;;;;;;;;;;12.13;88.34;97190.06;4979285;28;102647;-62
2022/03/30 09:42:18;;;;;;;;;;;;;;;12.22;88.85;97193.56;4977914;28;104255;-63
2022/03/30 09:44:51;;;;;;;;;;;;;;;11.90;91.16;97190.75;4978259;28;103140;-66
2022/03/30 09:47:19;;;;;;;;;;;;;;;11.97;90.57;97187.31;4974379;28;102728;-63
2022/03/30 09:49:48;;;;;;;;;;;;;;;11.93;90.19;97188.59;4979276;28;102935;-62
2022/03/30 09:52:18;;;;;;;;;;;;;;;11.92;90.42;97180.81;4978245;28;103754;-63
2022/03/30 09:54:49;;;;;;;;;;;;;;;11.95;91.08;97178.72;4978523;28;103213;-63
2022/03/30 09:57:19;;;;;;;;;;;;;;;12.08;89.82;97179.09;4979255;28;102988;-62
2022/03/30 09:59:57;;;;;;;;;;;;;;;12.08;89.37;97179.09;4971514;28;102705;-63
2022/03/30 10:02:28;;;;;;;;;;;;;;;12.09;89.05;97177.28;4978074;28;103602;-63
2022/03/30 10:04:55;;;;;;;;;;;;;;;12.18;88.76;97169.22;4974876;28;103161;-62
2022/03/30 10:07:24;;;;;;;;;;;;;;;12.00;88.87;97176.41;4972126;28;103708;-62
2022/03/30 10:09:53;;;;;;;;;;;;;;;12.17;89.86;97164.94;4974950;28;103730;-62
2022/03/30 10:12:21;;;;;;;;;;;;;;;12.14;88.37;97167.91;4972894;28;103234;-63
2022/03/30 10:14:49;;;;;;;;;;;;;;;12.00;89.62;97160.53;4973858;28;103212;-62
2022/03/30 10:17:18;;;;;;;;;;;;;;;12.27;89.33;97161.34;4978623;28;102731;-62
2022/03/30 10:19:46;;;;;;;;;;;;;;;12.14;87.73;97157.31;4976607;28;102835;-63
2022/03/30 10:22:20;;;;;;;;;;;;;;;12.25;88.35;97161.50;4977286;28;104132;-62
2022/03/30 10:24:56;;;;;;;;;;;;;;;12.34;87.99;97155.25;4977725;28;103179;-62
2022/03/30 10:27:31;;;;;;;;;;;;;;;12.48;86.81;97159.13;4979738;28;102912;-62
2022/03/30 10:30:01;;;;;;;;;;;;;;;12.03;86.17;97149.63;4979458;28;104024;-63
2022/03/30 10:32:33;;;;;;;;;;;;;;;12.16;88.00;97152.69;4979385;28;104238;-62
2022/03/30 10:35:05;;;;;;;;;;;;;;;12.23;87.01;97144.94;4977689;28;103072;-62
2022/03/30 10:37:36;;;;;;;;;;;;;;;12.33;87.02;97140.34;4977029;28;102684;-63
2022/03/30 10:40:11;;;;;;;;;;;;;;;11.88;85.41;97140.59;4976647;28;103852;-63
2022/03/30 10:43:13;;;;;;;;;;;;;;;11.94;83.99;97137.34;4975967;28;103206;-65
2022/03/30 10:45:48;;;;;;;;;;;;;;;12.30;85.60;97135.38;4975322;28;103159;-61
2022/03/30 10:48:20;;;;;;;;;;;;;;;12.51;84.35;97130.50;4978280;28;102669;-62
2022/03/30 10:50:50;;;;;;;;;;;;;;;12.37;83.03;97125.81;4977778;28;102590;-63
2022/03/30 10:53:41;;;;;;;;;;;;;;;12.38;82.11;97137.25;4965104;28;103327;-61
2022/03/30 10:56:27;;;;;;;;;;;;;;;12.29;83.13;97128.44;4972184;28;103163;-62
2022/03/30 10:59:09;;;;;;;;;;;;;;;12.22;82.93;97127.38;4969510;28;102650;-62
2022/03/30 11:01:41;;;;;;;;;;;;;;;12.27;82.71;97121.63;4968098;28;103516;-62
2022/03/30 11:04:16;;;;;;;;;;;;;;;12.31;84.70;97117.66;4959568;28;103382;-62
2022/03/30 11:06:44;;;;;;;;;;;;;;;12.33;84.80;97113.88;4969829;28;103164;-62
2022/03/30 11:09:22;;;;;;;;;;;;;;;12.25;84.23;97120.94;4968267;28;102583;-62
2022/03/30 11:11:57;;;;;;;;;;;;;;;12.31;85.32;97104.44;4971012;28;102900;-62
2022/03/30 11:14:31;;;;;;;;;;;;;;;12.19;86.14;97112.66;4969584;28;103666;-63
2022/03/30 11:17:01;;;;;;;;;;;;;;;12.32;86.28;97108.75;4972658;28;103153;-62
2022/03/30 11:19:49;;;;;;;;;;;;;;;12.30;86.39;97116.00;4971403;28;103263;-62
2022/03/30 11:22:17;;;;;;;;;;;;;;;12.16;86.75;97106.84;4971545;28;102674;-62
2022/03/30 11:24:46;;;;;;;;;;;;;;;11.82;86.79;97109.47;4964307;28;104140;-63
2022/03/30 11:27:19;;;;;;;;;;;;;;;11.76;88.19;97110.09;4968551;28;103635;-62
2022/03/30 11:30:17;;;;;;;;;;;;;;;11.97;86.76;97099.97;4974407;28;102714;-61
2022/03/30 11:33:04;;;;;;;;;;;;;;;11.69;89.02;97093.19;4975437;28;103838;-65
2022/03/30 11:35:37;;;;;;;;;;;;;;;11.79;89.38;97098.41;4990772;28;104119;-66
2022/03/30 11:38:28;;;;;;;;;;;;;;;11.86;88.81;97094.97;4974186;28;103187;-65
2022/03/30 11:41:06;;;;;;;15.07;8.10;;;;;;;12.49;85.05;97092.72;4967100;28;103188;-62
2022/03/30 11:45:12;;;;;;;16.70;8.50;;;;;;;12.31;85.99;97097.31;4976088;28;102631;-63
2022/03/30 11:46:31;;;;;;;17.27;9.17;;;;;;;12.23;87.36;97094.63;4979047;28;103631;-62
2022/03/30 11:49:02;;;;;;;14.63;8.10;;;;;;;12.29;87.19;97085.22;4977721;28;103209;-62
2022/03/30 11:51:32;;;;;;;12.83;8.30;;;;;;;12.20;88.22;97087.84;4979040;28;102825;-62